Time,TemperatureF,DewpointF,PressureIn,WindDirection,WindDirectionDegrees,WindSpeedMPH,WindSpeedGustMPH,Humidity,HourlyPrecipIn,Conditions,Clouds,dailyrainin,SoftwareType,DateUTC
2013-03-01 00:09:00,60.8,32.2,29.97,ESE,115,1.0,6.7,34,0.00,,,-99.99,FreeWX 2.05,2013-03-01 05:09:00,
2013-03-01 00:19:00,60.6,32.2,29.97,ESE,119,2.0,7.4,34,0.00,,,-99.99,FreeWX 2.05,2013-03-01 05:19:00,
2013-03-01 00:29:00,60.6,32.2,29.97,ESE,111,3.0,7.8,34,0.00,,,-99.99,FreeWX 2.05,2013-03-01 05:29:00,
2013-03-01 00:39:00,60.6,32.2,29.97,ESE,121,2.0,6.7,34,0.00,,,-99.99,FreeWX 2.05,2013-03-01 05:39:00,
2013-03-01 00:49:00,60.6,32.2,29.97,ESE,105,2.0,6.3,34,0.00,,,-99.99,FreeWX 2.05,2013-03-01 05:49:00,
2013-03-01 00:59:00,60.6,32.2,29.97,ESE,113,2.0,5.4,34,0.00,,,-99.99,FreeWX 2.05,2013-03-01 05:59:00,
2013-03-01 01:09:00,60.6,32.2,29.97,ESE,105,3.0,9.2,34,0.00,,,-99.99,FreeWX 2.05,2013-03-01 06:09:00,
2013-03-01 01:19:00,60.6,32.2,29.97,ESE,102,3.0,10.1,34,0.00,,,-99.99,FreeWX 2.05,2013-03-01 06:19:00,
2013-03-01 01:29:00,60.6,32.2,29.97,ESE,114,3.0,11.0,34,0.00,,,-99.99,FreeWX 2.05,2013-03-01 06:29:00,
2013-03-01 01:39:00,60.4,32.0,29.97,ESE,119,4.0,10.5,34,0.00,,,-99.99,FreeWX 2.05,2013-03-01 06:39:00,
2013-03-01 01:49:00,60.4,32.0,29.97,SE,131,3.0,10.1,34,0.00,,,-99.99,FreeWX 2.05,2013-03-01 06:49:00,
2013-03-01 01:59:00,60.4,32.0,29.97,SE,127,2.0,6.9,34,0.00,,,-99.99,FreeWX 2.05,2013-03-01 06:59:00,
2013-03-01 02:09:00,60.4,32.0,29.97,ESE,112,3.0,9.2,34,0.00,,,-99.99,FreeWX 2.05,2013-03-01 07:09:00,
2013-03-01 02:19:00,60.3,31.8,29.97,SE,130,3.0,8.7,34,0.00,,,-99.99,FreeWX 2.05,2013-03-01 07:19:00,
2013-03-01 02:29:00,60.1,31.6,29.94,SSE,147,3.0,9.2,34,0.00,,,-99.99,FreeWX 2.05,2013-03-01 07:29:00,
2013-03-01 02:39:00,60.1,31.6,29.94,SE,128,3.0,8.3,34,0.00,,,-99.99,FreeWX 2.05,2013-03-01 07:39:00,
2013-03-01 02:49:00,60.1,31.6,29.94,SSE,163,3.0,7.4,34,0.00,,,-99.99,FreeWX 2.05,2013-03-01 07:49:00,
2013-03-01 02:59:00,60.1,31.6,29.94,SSE,149,2.0,9.2,34,0.00,,,-99.99,FreeWX 2.05,2013-03-01 07:59:00,
2013-03-01 03:09:00,59.9,31.5,29.94,ESE,114,2.0,6.3,34,0.00,,,-99.99,FreeWX 2.05,2013-03-01 08:09:00,
2013-03-01 03:19:00,59.9,32.2,29.94,SE,141,2.0,7.4,35,0.00,,,-99.99,FreeWX 2.05,2013-03-01 08:19:00,
2013-03-01 03:29:00,59.7,32.0,29.94,ESE,118,1.0,6.3,35,0.00,,,-99.99,FreeWX 2.05,2013-03-01 08:29:00,
2013-03-01 03:39:00,59.5,31.8,29.94,SSE,156,1.0,6.9,35,0.00,,,-99.99,FreeWX 2.05,2013-03-01 08:39:00,
2013-03-01 03:49:00,59.4,31.6,29.94,North,-999,0.0,5.8,35,0.00,,,-99.99,FreeWX 2.05,2013-03-01 08:49:00,
2013-03-01 03:59:00,59.4,31.6,29.94,North,-999,0.0,4.5,35,0.00,,,-99.99,FreeWX 2.05,2013-03-01 08:59:00,
2013-03-01 04:09:00,59.2,31.5,29.94,North,-999,0.0,3.1,35,0.00,,,-99.99,FreeWX 2.05,2013-03-01 09:09:00,
2013-03-01 04:19:00,59.0,31.5,29.94,North,-999,0.0,3.1,35,0.00,,,-99.99,FreeWX 2.05,2013-03-01 09:19:00,
2013-03-01 04:29:00,58.8,32.0,29.94,North,-999,0.0,4.9,36,0.00,,,-99.99,FreeWX 2.05,2013-03-01 09:29:00,
2013-03-01 04:39:00,58.8,32.0,29.94,North,-999,0.0,4.5,36,0.00,,,-99.99,FreeWX 2.05,2013-03-01 09:39:00,
2013-03-01 04:49:00,58.8,32.0,29.94,North,-999,0.0,4.0,36,0.00,,,-99.99,FreeWX 2.05,2013-03-01 09:49:00,
2013-03-01 04:59:00,58.6,31.8,29.94,North,-999,0.0,5.4,36,0.00,,,-99.99,FreeWX 2.05,2013-03-01 09:59:00,
2013-03-01 05:09:00,58.6,31.8,29.94,North,-999,0.0,4.5,36,0.00,,,-99.99,FreeWX 2.05,2013-03-01 10:09:00,
2013-03-01 05:19:00,58.6,31.8,29.94,North,-999,0.0,4.9,36,0.00,,,-99.99,FreeWX 2.05,2013-03-01 10:19:00,
2013-03-01 05:29:00,58.8,32.0,29.97,South,179,1.0,4.0,36,0.00,,,-99.99,FreeWX 2.05,2013-03-01 10:29:00,
2013-03-01 05:39:00,58.6,31.8,29.97,South,191,1.0,4.5,36,0.00,,,-99.99,FreeWX 2.05,2013-03-01 10:39:00,
2013-03-01 05:49:00,57.9,30.4,29.97,SW,231,1.0,4.0,35,0.00,,,-99.99,FreeWX 2.05,2013-03-01 10:49:00,
2013-03-01 05:59:00,57.0,29.7,29.97,SW,232,1.0,4.0,35,0.00,,,-99.99,FreeWX 2.05,2013-03-01 10:59:00,
2013-03-01 06:09:00,56.5,29.1,29.97,SW,236,1.0,4.5,35,0.00,,,-99.99,FreeWX 2.05,2013-03-01 11:09:00,
2013-03-01 06:19:00,55.9,28.8,29.97,SW,232,2.0,4.5,35,0.00,,,-99.99,FreeWX 2.05,2013-03-01 11:19:00,
2013-03-01 06:29:00,55.8,28.6,29.97,WSW,239,1.0,4.5,35,0.00,,,-99.99,FreeWX 2.05,2013-03-01 11:29:00,
2013-03-01 06:39:00,55.2,28.0,29.97,WSW,243,1.0,4.9,35,0.00,,,-99.99,FreeWX 2.05,2013-03-01 11:39:00,
2013-03-01 06:49:00,54.9,27.0,29.97,WSW,242,1.0,4.5,34,0.00,,,-99.99,FreeWX 2.05,2013-03-01 11:49:00,
2013-03-01 06:59:00,54.5,26.8,30.00,North,-999,0.0,3.1,34,0.00,,,-99.99,FreeWX 2.05,2013-03-01 11:59:00,
2013-03-01 07:09:00,54.3,26.6,30.00,North,-999,0.0,3.1,34,0.00,,,-99.99,FreeWX 2.05,2013-03-01 12:09:00,
2013-03-01 07:19:00,54.1,26.4,30.00,North,-999,0.0,2.7,34,0.00,,,-99.99,FreeWX 2.05,2013-03-01 12:19:00,
2013-03-01 07:29:00,54.5,26.8,30.00,North,-999,0.0,2.7,34,0.00,,,-99.99,FreeWX 2.05,2013-03-01 12:29:00,
2013-03-01 07:39:00,54.5,26.8,30.00,North,-999,0.0,0.0,34,0.00,,,-99.99,FreeWX 2.05,2013-03-01 12:39:00,
2013-03-01 07:49:00,54.5,26.1,30.00,North,-999,0.0,3.1,33,0.00,,,-99.99,FreeWX 2.05,2013-03-01 12:49:00,
2013-03-01 07:59:00,55.0,26.4,30.00,North,-999,0.0,4.0,33,0.00,,,-99.99,FreeWX 2.05,2013-03-01 12:59:00,
2013-03-01 08:09:00,55.0,24.3,30.00,WSW,244,1.0,4.9,30,0.00,,,-99.99,FreeWX 2.05,2013-03-01 13:09:00,
2013-03-01 08:19:00,55.2,23.5,30.00,WSW,244,2.0,4.0,29,0.00,,,-99.99,FreeWX 2.05,2013-03-01 13:19:00,
2013-03-01 08:29:00,55.6,23.0,30.03,WSW,239,2.0,4.5,28,0.00,,,-99.99,FreeWX 2.05,2013-03-01 13:29:00,
2013-03-01 08:39:00,56.3,22.8,30.03,WSW,254,1.0,4.5,27,0.00,,,-99.99,FreeWX 2.05,2013-03-01 13:39:00,
2013-03-01 08:49:00,56.7,23.0,30.03,WSW,238,2.0,4.5,27,0.00,,,-99.99,FreeWX 2.05,2013-03-01 13:49:00,
2013-03-01 08:59:00,57.2,23.5,30.03,WSW,237,1.0,5.4,27,0.00,,,-99.99,FreeWX 2.05,2013-03-01 13:59:00,
2013-03-01 09:09:00,57.6,23.9,30.03,SSW,209,1.0,4.0,27,0.00,,,-99.99,FreeWX 2.05,2013-03-01 14:09:00,
2013-03-01 09:19:00,57.7,24.1,30.03,SW,224,1.0,5.4,27,0.00,,,-99.99,FreeWX 2.05,2013-03-01 14:19:00,
2013-03-01 09:29:00,57.7,24.1,30.03,SW,229,2.0,6.9,27,0.00,,,-99.99,FreeWX 2.05,2013-03-01 14:29:00,
2013-03-01 09:39:00,58.1,24.3,30.03,SW,228,2.0,5.8,27,0.00,,,-99.99,FreeWX 2.05,2013-03-01 14:39:00,
2013-03-01 09:49:00,58.3,24.4,30.03,SW,234,2.0,4.9,27,0.00,,,-99.99,FreeWX 2.05,2013-03-01 14:49:00,
2013-03-01 09:59:00,58.5,24.6,30.03,WSW,255,1.0,4.5,27,0.00,,,-99.99,FreeWX 2.05,2013-03-01 14:59:00,
2013-03-01 10:09:00,58.8,25.0,30.03,SW,235,2.0,5.4,27,0.00,,,-99.99,FreeWX 2.05,2013-03-01 15:09:00,
2013-03-01 10:19:00,59.4,25.3,30.03,SW,228,2.0,5.8,27,0.00,,,-99.99,FreeWX 2.05,2013-03-01 15:19:00,
2013-03-01 10:29:00,60.3,26.2,30.03,SW,216,2.0,4.9,27,0.00,,,-99.99,FreeWX 2.05,2013-03-01 15:29:00,
2013-03-01 10:39:00,60.1,26.1,30.03,SW,228,3.0,6.3,27,0.00,,,-99.99,FreeWX 2.05,2013-03-01 15:39:00,
2013-03-01 10:49:00,60.4,26.2,30.03,SW,226,2.0,6.3,27,0.00,,,-99.99,FreeWX 2.05,2013-03-01 15:49:00,
2013-03-01 10:59:00,61.3,27.1,30.03,SW,214,3.0,7.8,27,0.00,,,-99.99,FreeWX 2.05,2013-03-01 15:59:00,
2013-03-01 11:09:00,61.3,26.2,30.03,SSE,155,2.0,6.9,26,0.00,,,-99.99,FreeWX 2.05,2013-03-01 16:09:00,
2013-03-01 11:19:00,61.0,26.8,30.03,SSW,212,3.0,6.3,27,0.00,,,-99.99,FreeWX 2.05,2013-03-01 16:19:00,
2013-03-01 11:29:00,61.7,27.3,30.03,SSE,163,3.0,8.3,27,0.00,,,-99.99,FreeWX 2.05,2013-03-01 16:29:00,
2013-03-01 11:39:00,62.2,27.9,30.03,SSE,164,3.0,8.3,27,0.00,,,-99.99,FreeWX 2.05,2013-03-01 16:39:00,
2013-03-01 11:49:00,61.7,26.4,30.03,SW,229,3.0,6.9,26,0.00,,,-99.99,FreeWX 2.05,2013-03-01 16:49:00,
2013-03-01 11:59:00,62.1,26.8,30.03,SSW,201,3.0,7.4,26,0.00,,,-99.99,FreeWX 2.05,2013-03-01 16:59:00,
2013-03-01 12:09:00,62.6,27.3,30.03,SSE,163,3.0,11.0,26,0.00,,,-99.99,FreeWX 2.05,2013-03-01 17:09:00,
2013-03-01 12:19:00,62.6,27.3,30.00,SSE,152,4.0,8.3,26,0.00,,,-99.99,FreeWX 2.05,2013-03-01 17:19:00,
2013-03-01 12:29:00,61.7,26.4,30.03,South,185,3.0,9.2,26,0.00,,,-99.99,FreeWX 2.05,2013-03-01 17:29:00,
2013-03-01 12:39:00,62.2,27.0,30.03,SSE,156,3.0,9.2,26,0.00,,,-99.99,FreeWX 2.05,2013-03-01 17:39:00,
2013-03-01 12:49:00,62.2,27.0,30.00,South,173,3.0,6.9,26,0.00,,,-99.99,FreeWX 2.05,2013-03-01 17:49:00,
2013-03-01 12:59:00,62.2,27.0,30.00,SSE,164,3.0,8.3,26,0.00,,,-99.99,FreeWX 2.05,2013-03-01 17:59:00,
2013-03-01 13:09:00,62.1,26.8,30.00,SSE,155,4.0,10.5,26,0.00,,,-99.99,FreeWX 2.05,2013-03-01 18:09:00,
2013-03-01 13:19:00,61.9,26.6,30.00,SE,146,3.0,9.2,26,0.00,,,-99.99,FreeWX 2.05,2013-03-01 18:19:00,
2013-03-01 13:29:00,61.7,27.3,30.00,SSE,168,3.0,10.5,27,0.00,,,-99.99,FreeWX 2.05,2013-03-01 18:29:00,
2013-03-01 13:39:00,61.3,27.1,30.00,SW,222,3.0,6.7,27,0.00,,,-99.99,FreeWX 2.05,2013-03-01 18:39:00,
2013-03-01 13:49:00,60.8,26.6,29.97,South,185,3.0,7.8,27,0.00,,,-99.99,FreeWX 2.05,2013-03-01 18:49:00,
2013-03-01 13:59:00,61.9,26.6,29.97,South,170,4.0,8.7,26,0.00,,,-99.99,FreeWX 2.05,2013-03-01 18:59:00,
2013-03-01 14:09:00,61.9,26.6,29.97,South,182,3.0,7.8,26,0.00,,,-99.99,FreeWX 2.05,2013-03-01 19:09:00,
2013-03-01 14:19:00,62.2,27.0,29.97,SE,136,4.0,9.6,26,0.00,,,-99.99,FreeWX 2.05,2013-03-01 19:19:00,
2013-03-01 14:29:00,63.0,27.5,29.97,SSE,153,3.0,7.8,26,0.00,,,-99.99,FreeWX 2.05,2013-03-01 19:29:00,
2013-03-01 14:39:00,63.9,27.3,29.97,SSE,154,4.0,9.2,25,0.00,,,-99.99,FreeWX 2.05,2013-03-01 19:39:00,
2013-03-01 14:49:00,64.6,28.0,29.97,ESE,105,4.0,13.9,25,0.00,,,-99.99,FreeWX 2.05,2013-03-01 19:49:00,
2013-03-01 14:59:00,64.2,27.7,29.97,SE,133,4.0,8.3,25,0.00,,,-99.99,FreeWX 2.05,2013-03-01 19:59:00,
2013-03-01 15:09:00,64.2,26.6,29.97,SSE,157,4.0,11.2,24,0.00,,,-99.99,FreeWX 2.05,2013-03-01 20:09:00,
2013-03-01 15:19:00,63.9,26.4,30.00,ESE,116,4.0,9.2,24,0.00,,,-99.99,FreeWX 2.05,2013-03-01 20:19:00,
2013-03-01 15:29:00,64.0,26.6,30.00,South,177,4.0,7.4,24,0.00,,,-99.99,FreeWX 2.05,2013-03-01 20:29:00,
2013-03-01 15:39:00,62.4,26.1,30.00,SSE,162,3.0,8.7,25,0.00,,,-99.99,FreeWX 2.05,2013-03-01 20:39:00,
2013-03-01 15:49:00,63.1,26.8,30.00,SSE,149,2.0,7.8,25,0.00,,,-99.99,FreeWX 2.05,2013-03-01 20:49:00,
2013-03-01 15:59:00,62.8,26.4,30.00,SE,141,2.0,9.6,25,0.00,,,-99.99,FreeWX 2.05,2013-03-01 20:59:00,
2013-03-01 16:09:00,62.4,26.1,30.00,ESE,103,2.0,8.3,25,0.00,,,-99.99,FreeWX 2.05,2013-03-01 21:09:00,
2013-03-01 16:19:00,60.6,24.6,29.97,SW,214,3.0,5.8,25,0.00,,,-99.99,FreeWX 2.05,2013-03-01 21:19:00,
2013-03-01 16:29:00,60.4,25.3,30.00,SE,143,3.0,9.2,26,0.00,,,-99.99,FreeWX 2.05,2013-03-01 21:29:00,
2013-03-01 16:39:00,60.4,25.3,30.00,SE,127,3.0,7.4,26,0.00,,,-99.99,FreeWX 2.05,2013-03-01 21:39:00,
2013-03-01 16:49:00,59.9,25.0,30.00,SE,130,3.0,8.7,26,0.00,,,-99.99,FreeWX 2.05,2013-03-01 21:49:00,
2013-03-01 16:59:00,59.4,24.4,29.97,SE,146,2.0,6.9,26,0.00,,,-99.99,FreeWX 2.05,2013-03-01 21:59:00,
2013-03-01 17:09:00,59.4,24.4,29.97,ESE,106,4.0,9.6,26,0.00,,,-99.99,FreeWX 2.05,2013-03-01 22:09:00,
2013-03-01 17:19:00,59.4,24.4,29.97,ESE,121,3.0,7.4,26,0.00,,,-99.99,FreeWX 2.05,2013-03-01 22:19:00,
2013-03-01 17:29:00,59.2,24.3,30.00,ESE,107,3.0,9.6,26,0.00,,,-99.99,FreeWX 2.05,2013-03-01 22:29:00,
2013-03-01 17:39:00,58.8,24.1,30.00,SSE,151,3.0,7.4,26,0.00,,,-99.99,FreeWX 2.05,2013-03-01 22:39:00,
2013-03-01 17:49:00,58.5,22.8,30.00,ESE,120,2.0,6.9,25,0.00,,,-99.99,FreeWX 2.05,2013-03-01 22:49:00,
2013-03-01 17:59:00,58.3,22.6,30.00,SSE,153,2.0,7.8,25,0.00,,,-99.99,FreeWX 2.05,2013-03-01 22:59:00,
2013-03-01 18:09:00,58.1,23.4,30.00,SE,143,2.0,7.4,26,0.00,,,-99.99,FreeWX 2.05,2013-03-01 23:09:00,
2013-03-01 18:19:00,58.1,23.4,30.00,ESE,122,3.0,7.8,26,0.00,,,-99.99,FreeWX 2.05,2013-03-01 23:19:00,
2013-03-01 18:29:00,57.9,23.2,30.00,ESE,118,2.0,10.1,26,0.00,,,-99.99,FreeWX 2.05,2013-03-01 23:29:00,
2013-03-01 18:39:00,57.9,23.2,30.00,ESE,123,3.0,9.2,26,0.00,,,-99.99,FreeWX 2.05,2013-03-01 23:39:00,
2013-03-01 18:49:00,57.7,23.2,30.00,SE,140,4.0,8.3,26,0.00,,,-99.99,FreeWX 2.05,2013-03-01 23:49:00,
2013-03-01 18:59:00,57.6,23.0,30.00,ESE,117,3.0,12.5,26,0.00,,,-99.99,FreeWX 2.05,2013-03-01 23:59:00,
2013-03-01 19:09:00,57.6,22.1,30.00,ESE,116,4.0,10.1,25,0.00,,,-99.99,FreeWX 2.05,2013-03-02 00:09:00,
2013-03-01 19:19:00,57.6,22.1,30.03,ESE,104,3.0,8.3,25,0.00,,,-99.99,FreeWX 2.05,2013-03-02 00:19:00,
2013-03-01 19:29:00,57.6,23.0,30.03,SE,134,3.0,9.6,26,0.00,,,-99.99,FreeWX 2.05,2013-03-02 00:29:00,
2013-03-01 19:39:00,57.6,23.0,30.03,SSE,150,2.0,7.8,26,0.00,,,-99.99,FreeWX 2.05,2013-03-02 00:39:00,
2013-03-01 19:49:00,57.7,23.2,30.03,SE,134,3.0,11.0,26,0.00,,,-99.99,FreeWX 2.05,2013-03-02 00:49:00,
2013-03-01 19:59:00,57.6,23.0,30.03,ESE,119,3.0,7.8,26,0.00,,,-99.99,FreeWX 2.05,2013-03-02 00:59:00,
2013-03-01 20:09:00,57.4,22.8,30.03,SE,144,4.0,11.0,26,0.00,,,-99.99,FreeWX 2.05,2013-03-02 01:09:00,
2013-03-01 20:19:00,57.4,22.8,30.03,ESE,122,4.0,8.7,26,0.00,,,-99.99,FreeWX 2.05,2013-03-02 01:19:00,
2013-03-01 20:29:00,57.4,21.9,30.03,ESE,106,4.0,11.0,25,0.00,,,-99.99,FreeWX 2.05,2013-03-02 01:29:00,
2013-03-01 20:39:00,57.4,21.9,30.03,SE,124,3.0,7.8,25,0.00,,,-99.99,FreeWX 2.05,2013-03-02 01:39:00,
2013-03-01 20:49:00,57.2,21.7,30.03,SSE,153,4.0,11.2,25,0.00,,,-99.99,FreeWX 2.05,2013-03-02 01:49:00,
2013-03-01 20:59:00,57.2,21.7,30.03,SE,133,3.0,8.7,25,0.00,,,-99.99,FreeWX 2.05,2013-03-02 01:59:00,
2013-03-01 21:09:00,57.2,21.7,30.03,SE,133,4.0,12.1,25,0.00,,,-99.99,FreeWX 2.05,2013-03-02 02:09:00,
2013-03-01 21:19:00,57.0,21.6,30.03,SE,125,4.0,8.3,25,0.00,,,-99.99,FreeWX 2.05,2013-03-02 02:19:00,
2013-03-01 21:29:00,57.2,21.7,30.03,ESE,104,4.0,10.5,25,0.00,,,-99.99,FreeWX 2.05,2013-03-02 02:29:00,
2013-03-01 21:39:00,57.2,21.7,30.03,ESE,120,4.0,9.2,25,0.00,,,-99.99,FreeWX 2.05,2013-03-02 02:39:00,
2013-03-01 21:49:00,57.0,22.5,30.03,SE,146,4.0,13.0,26,0.00,,,-99.99,FreeWX 2.05,2013-03-02 02:49:00,
2013-03-01 22:00:00,57.0,22.5,30.03,ESE,120,4.0,11.6,26,0.00,,,-99.99,FreeWX 2.05,2013-03-02 03:00:00,
2013-03-01 22:10:00,56.8,22.3,30.03,ESE,122,2.0,8.7,26,0.00,,,-99.99,FreeWX 2.05,2013-03-02 03:10:00,
2013-03-01 22:20:00,57.0,22.5,30.03,ESE,115,3.0,8.7,26,0.00,,,-99.99,FreeWX 2.05,2013-03-02 03:20:00,
2013-03-01 22:30:00,57.0,22.5,30.03,SE,133,3.0,10.5,26,0.00,,,-99.99,FreeWX 2.05,2013-03-02 03:30:00,
2013-03-01 22:40:00,57.0,22.5,30.03,ESE,121,3.0,8.7,26,0.00,,,-99.99,FreeWX 2.05,2013-03-02 03:40:00,
2013-03-01 22:50:00,57.0,22.5,30.03,ESE,116,3.0,9.2,26,0.00,,,-99.99,FreeWX 2.05,2013-03-02 03:50:00,
2013-03-01 23:00:00,56.8,22.3,30.03,SE,130,3.0,8.7,26,0.00,,,-99.99,FreeWX 2.05,2013-03-02 04:00:00,
2013-03-01 23:10:00,56.8,22.3,30.03,ESE,105,4.0,9.2,26,0.00,,,-99.99,FreeWX 2.05,2013-03-02 04:10:00,
2013-03-01 23:20:00,56.8,22.3,30.03,ESE,108,4.0,8.7,26,0.00,,,-99.99,FreeWX 2.05,2013-03-02 04:20:00,
2013-03-01 23:30:00,56.8,22.3,30.03,ESE,107,3.0,9.2,26,0.00,,,-99.99,FreeWX 2.05,2013-03-02 04:30:00,
2013-03-01 23:40:00,56.8,22.3,30.03,SE,139,4.0,8.7,26,0.00,,,-99.99,FreeWX 2.05,2013-03-02 04:40:00,
2013-03-01 23:50:00,56.7,22.1,30.03,SE,140,4.0,9.2,26,0.00,,,-99.99,FreeWX 2.05,2013-03-02 04:50:00,